Time,TemperatureF,DewpointF,PressureIn,WindDirection,WindDirectionDegrees,WindSpeedMPH,WindSpeedGustMPH,Humidity,HourlyPrecipIn,Conditions,Clouds,dailyrainin,SoftwareType,DateUTC
2014-08-22 00:05:00,72.0,64.0,29.74,SE,135,1.6,-999.0,76,-99.99,,,0.00,Acu-Link.com,2014-08-22 04:05:00,
2014-08-22 00:21:00,71.8,63.8,29.74,South,180,0.0,-999.0,76,-99.99,,,0.00,Acu-Link.com,2014-08-22 04:21:00,
2014-08-22 00:36:00,71.8,64.2,29.73,South,180,2.7,-999.0,77,-99.99,,,0.00,Acu-Link.com,2014-08-22 04:36:00,
2014-08-22 00:51:00,71.6,64.0,29.74,SSE,157,0.0,-999.0,77,-99.99,,,0.00,Acu-Link.com,2014-08-22 04:51:00,
2014-08-22 01:06:00,71.6,64.4,29.73,SW,225,0.0,-999.0,78,-99.99,,,0.00,Acu-Link.com,2014-08-22 05:06:00,
2014-08-22 01:22:00,71.6,64.4,29.73,ESE,112,0.0,-999.0,78,-99.99,,,0.00,Acu-Link.com,2014-08-22 05:22:00,
2014-08-22 01:37:00,72.0,65.1,29.74,NNE,22,2.7,-999.0,79,-99.99,,,0.00,Acu-Link.com,2014-08-22 05:37:00,
2014-08-22 01:52:00,71.2,64.4,29.74,East,90,0.0,-999.0,79,-99.99,,,0.00,Acu-Link.com,2014-08-22 05:52:00,
2014-08-22 02:07:00,70.3,65.6,29.74,SE,135,0.0,-999.0,85,-99.99,,,0.01,Acu-Link.com,2014-08-22 06:07:00,
2014-08-22 02:23:00,69.4,66.4,29.74,SSE,157,1.1,-999.0,90,-99.99,,,0.18,Acu-Link.com,2014-08-22 06:23:00,
2014-08-22 02:38:00,69.1,66.3,29.74,WNW,292,2.7,-999.0,91,-99.99,,,0.20,Acu-Link.com,2014-08-22 06:38:00,
2014-08-22 02:53:00,68.9,66.5,29.74,NNW,337,1.6,-999.0,92,-99.99,,,0.25,Acu-Link.com,2014-08-22 06:53:00,
2014-08-22 03:08:00,68.7,66.6,29.74,East,90,0.0,-999.0,93,-99.99,,,0.25,Acu-Link.com,2014-08-22 07:08:00,
2014-08-22 03:24:00,68.4,66.3,29.74,ESE,112,0.0,-999.0,93,-99.99,,,0.25,Acu-Link.com,2014-08-22 07:24:00,
2014-08-22 03:39:00,68.4,66.3,29.74,SSW,202,2.2,-999.0,93,-99.99,,,0.25,Acu-Link.com,2014-08-22 07:39:00,
2014-08-22 03:54:00,68.4,66.3,29.74,SE,135,1.6,-999.0,93,-99.99,,,0.25,Acu-Link.com,2014-08-22 07:54:00,
2014-08-22 04:09:00,68.5,66.4,29.74,SE,135,0.0,-999.0,93,-99.99,,,0.25,Acu-Link.com,2014-08-22 08:09:00,
2014-08-22 04:25:00,68.2,66.1,29.73,NE,45,0.0,-999.0,93,-99.99,,,0.25,Acu-Link.com,2014-08-22 08:25:00,
2014-08-22 04:40:00,67.8,65.7,29.73,SW,225,0.0,-999.0,93,-99.99,,,0.25,Acu-Link.com,2014-08-22 08:40:00,
2014-08-22 04:55:00,67.8,66.0,29.72,West,270,0.0,-999.0,94,-99.99,,,0.32,Acu-Link.com,2014-08-22 08:55:00,
2014-08-22 05:11:00,67.5,65.7,29.72,South,180,0.0,-999.0,94,-99.99,,,0.32,Acu-Link.com,2014-08-22 09:11:00,
2014-08-22 05:26:00,66.9,65.1,29.73,NNE,22,0.0,-999.0,94,-99.99,,,0.33,Acu-Link.com,2014-08-22 09:26:00,
2014-08-22 05:41:00,66.7,65.0,29.74,NNE,22,0.0,-999.0,94,-99.99,,,0.33,Acu-Link.com,2014-08-22 09:41:00,
2014-08-22 05:56:00,66.4,64.6,29.74,NNE,22,0.0,-999.0,94,-99.99,,,0.33,Acu-Link.com,2014-08-22 09:56:00,
2014-08-22 06:11:00,66.7,65.0,29.74,WSW,247,0.0,-999.0,94,-99.99,,,0.33,Acu-Link.com,2014-08-22 10:11:00,
2014-08-22 06:27:00,66.9,65.1,29.74,ESE,112,1.6,-999.0,94,-99.99,,,0.33,Acu-Link.com,2014-08-22 10:27:00,
2014-08-22 06:42:00,66.9,65.1,29.75,SSE,157,0.0,-999.0,94,-99.99,,,0.33,Acu-Link.com,2014-08-22 10:42:00,
2014-08-22 06:57:00,67.1,65.3,29.74,East,90,0.0,-999.0,94,-99.99,,,0.33,Acu-Link.com,2014-08-22 10:57:00,
2014-08-22 07:12:00,67.6,65.8,29.76,West,270,0.0,-999.0,94,-99.99,,,0.33,Acu-Link.com,2014-08-22 11:12:00,
2014-08-22 07:28:00,67.6,65.8,29.76,NNE,22,0.0,-999.0,94,-99.99,,,0.33,Acu-Link.com,2014-08-22 11:28:00,
2014-08-22 07:43:00,68.2,66.4,29.76,West,270,0.0,-999.0,94,-99.99,,,0.33,Acu-Link.com,2014-08-22 11:43:00,
2014-08-22 07:58:00,68.5,66.7,29.76,ESE,112,0.0,-999.0,94,-99.99,,,0.33,Acu-Link.com,2014-08-22 11:58:00,
2014-08-22 08:13:00,68.9,67.1,29.76,ESE,112,0.0,-999.0,94,-99.99,,,0.33,Acu-Link.com,2014-08-22 12:13:00,
2014-08-22 08:29:00,69.6,67.5,29.76,SSE,157,0.0,-999.0,93,-99.99,,,0.33,Acu-Link.com,2014-08-22 12:29:00,
2014-08-22 08:44:00,70.0,67.9,29.77,ESE,112,0.0,-999.0,93,-99.99,,,0.33,Acu-Link.com,2014-08-22 12:44:00,
2014-08-22 08:59:00,70.5,67.8,29.76,SW,225,0.0,-999.0,91,-99.99,,,0.33,Acu-Link.com,2014-08-22 12:59:00,
2014-08-22 09:15:00,70.9,68.1,29.77,ESE,112,0.0,-999.0,91,-99.99,,,0.33,Acu-Link.com,2014-08-22 13:15:00,
2014-08-22 09:30:00,71.1,68.0,29.77,South,180,0.0,-999.0,90,-99.99,,,0.33,Acu-Link.com,2014-08-22 13:30:00,
2014-08-22 09:45:00,71.6,67.9,29.78,ESE,112,0.0,-999.0,88,-99.99,,,0.33,Acu-Link.com,2014-08-22 13:45:00,
2014-08-22 10:00:00,73.0,68.3,29.78,SSE,157,2.2,-999.0,85,-99.99,,,0.33,Acu-Link.com,2014-08-22 14:00:00,
2014-08-22 10:16:00,73.8,68.3,29.78,SSE,157,0.0,-999.0,83,-99.99,,,0.33,Acu-Link.com,2014-08-22 14:16:00,
2014-08-22 10:31:00,74.1,68.3,29.78,North,0,0.0,-999.0,82,-99.99,,,0.33,Acu-Link.com,2014-08-22 14:31:00,
2014-08-22 10:46:00,75.4,68.0,29.78,WNW,292,0.0,-999.0,78,-99.99,,,0.33,Acu-Link.com,2014-08-22 14:46:00,
2014-08-22 11:01:00,75.6,67.4,29.78,SSE,157,1.1,-999.0,76,-99.99,,,0.33,Acu-Link.com,2014-08-22 15:01:00,
2014-08-22 11:17:00,75.7,67.6,29.77,SSE,157,1.1,-999.0,76,-99.99,,,0.33,Acu-Link.com,2014-08-22 15:17:00,
2014-08-22 11:32:00,76.5,67.9,29.77,NNE,22,0.0,-999.0,75,-99.99,,,0.33,Acu-Link.com,2014-08-22 15:32:00,
2014-08-22 11:47:00,77.0,67.7,29.77,South,180,3.1,-999.0,73,-99.99,,,0.33,Acu-Link.com,2014-08-22 15:47:00,
2014-08-22 12:02:00,76.8,67.1,29.77,SW,225,0.0,-999.0,72,-99.99,,,0.33,Acu-Link.com,2014-08-22 16:02:00,
2014-08-22 12:18:00,76.8,67.1,29.77,SE,135,0.0,-999.0,72,-99.99,,,0.33,Acu-Link.com,2014-08-22 16:18:00,
2014-08-22 12:33:00,76.5,67.1,29.77,ESE,112,1.6,-999.0,73,-99.99,,,0.33,Acu-Link.com,2014-08-22 16:33:00,
2014-08-22 12:48:00,76.5,66.7,29.77,East,90,2.7,-999.0,72,-99.99,,,0.33,Acu-Link.com,2014-08-22 16:48:00,
2014-08-22 13:03:00,78.4,67.8,29.76,ESE,112,2.7,-999.0,70,-99.99,,,0.33,Acu-Link.com,2014-08-22 17:03:00,
2014-08-22 13:19:00,78.8,67.7,29.76,West,270,3.8,-999.0,69,-99.99,,,0.33,Acu-Link.com,2014-08-22 17:19:00,
2014-08-22 13:34:00,76.6,66.1,29.76,SSW,202,4.7,-999.0,70,-99.99,,,0.33,Acu-Link.com,2014-08-22 17:34:00,
2014-08-22 13:49:00,78.4,67.0,29.76,South,180,2.7,-999.0,68,-99.99,,,0.33,Acu-Link.com,2014-08-22 17:49:00,
2014-08-22 14:04:00,76.3,65.3,29.76,NW,315,3.8,-999.0,69,-99.99,,,0.33,Acu-Link.com,2014-08-22 18:04:00,
2014-08-22 14:19:00,78.3,67.2,29.76,SSW,202,0.0,-999.0,69,-99.99,,,0.33,Acu-Link.com,2014-08-22 18:19:00,
2014-08-22 14:35:00,76.8,65.4,29.75,ENE,67,3.8,-999.0,68,-99.99,,,0.33,Acu-Link.com,2014-08-22 18:35:00,